LSGG Airport Information

Runway Information
Runway 05 Length 12795 ft width 164 ft
Elevation 1411 ft Threshold 1082 ft Heading 46
Runway 23 Length 12795 ft Width 164 ft
Elevation 1365 ft Threshold 0 ft Heading 226
Runway 05L Length 2700 ft width 98 ft
Elevation 1378 ft Threshold 613 ft Heading 46
Runway 23R Length 2700 ft Width 98 ft
Elevation 1393 ft Threshold 994 ft Heading 226
Airport Frequencies
Type APP Name APP Frequency 120.3 MHZ
Type ARR Name ARR Frequency 136.25 MHZ
Type ATIS Name ATIS Frequency 135.575 MHZ
Type DEP Name DEP Frequency 119.525 MHZ
Type GND Name GND Frequency 121.675 MHZ
Type GTE Name APN Frequency 121.75 MHZ
Type TWR Name TWR Frequency 118.7 MHZ
Airport Navaids
Type NDB Name Gland Frequency 375 KHZ
Type VOR-DME Name Geneva Cointrin Frequency 115750 KHZ
Type VOR-DME Name Passeiry Frequency 116600 KHZ
Airport Weather Information & NOTAM
ADDS - METARS form results

(0510 UTC 13 December 2018)
Data provider http://aviationweather.gov/metar/data/
 
METAR text: LSGG 130450Z 03005KT 9999 SCT027 M01/M05 Q1014 NOSIG
Conditions at: LSGG (GENEVA/COINTRIN , CH) observed 0450 UTC 13 December 2018
Temperature: -1.0°C (30°F)
Dewpoint: -5.0°C (23°F) [RH = 74%]
Pressure (altimeter): 29.94 inches Hg (1014.0 mb)
Winds: from the NNE (30 degrees) at 6 MPH (5 knots; 2.6 m/s)
Visibility: 6 or more miles (10+ km)
Ceiling: at least 12,000 feet AGL
Clouds: scattered clouds at 2700 feet AGL
Weather: no significant weather observed at this time

METAR text: LSGG 130420Z AUTO 03004KT 9999 SCT027 M00/M05 Q1014 NOSIG
Conditions at: LSGG (GENEVA/COINTRIN , CH) observed 0420 UTC 13 December 2018
Temperature: 0.0°C (32°F)
Dewpoint: -5.0°C (23°F) [RH = 69%]
Pressure (altimeter): 29.94 inches Hg (1014.0 mb)
Winds: from the NNE (30 degrees) at 5 MPH (4 knots; 2.1 m/s)
Visibility: 6 or more miles (10+ km)
Ceiling: at least 12,000 feet AGL
Clouds: scattered clouds at 2700 feet AGL
Weather: no significant weather observed at this time

Forecast for: LSGG (GENEVA/COINTRIN , CH)
Text: TAF LSGG 130225Z 1303/1409 05006KT 9999 BKN030 TX03/1314Z TNM01/1306Z TNM01/1406Z
Forecast period: 0300 UTC 13 December 2018 to 0900 UTC 14 December 2018
Forecast type: FROM: standard forecast or significant change
Winds: from the NE (50 degrees) at 7 MPH (6 knots; 3.1 m/s)
Visibility: 6 or more miles 10+ km)
Ceiling: 3000 feet AGL
Clouds: broken clouds at 3000 feet AGL
Weather: no significant weather forecast for this period